sensor_id;sensor_type;location;lat;lon;timestamp;P1;durP1;ratioP1;P2;durP2;ratioP2
20495;SDS011;10406;54.132;17.968;2022-08-18T00:00:03;27.90;;;14.90;;
20495;SDS011;10406;54.132;17.968;2022-08-18T00:05:27;42.37;;;19.23;;
20495;SDS011;10406;54.132;17.968;2022-08-18T00:10:48;27.02;;;15.38;;
20495;SDS011;10406;54.132;17.968;2022-08-18T00:16:10;26.07;;;13.97;;
20495;SDS011;10406;54.132;17.968;2022-08-18T00:21:32;25.15;;;14.15;;
20495;SDS011;10406;54.132;17.968;2022-08-18T00:26:54;28.00;;;14.90;;
20495;SDS011;10406;54.132;17.968;2022-08-18T00:32:16;30.38;;;15.80;;
20495;SDS011;10406;54.132;17.968;2022-08-18T00:37:41;29.80;;;16.00;;
20495;SDS011;10406;54.132;17.968;2022-08-18T00:43:03;33.73;;;16.60;;
20495;SDS011;10406;54.132;17.968;2022-08-18T00:48:27;25.90;;;14.47;;
20495;SDS011;10406;54.132;17.968;2022-08-18T00:53:53;30.00;;;15.97;;
20495;SDS011;10406;54.132;17.968;2022-08-18T00:59:25;29.60;;;14.90;;
20495;SDS011;10406;54.132;17.968;2022-08-18T01:04:51;27.27;;;15.52;;
20495;SDS011;10406;54.132;17.968;2022-08-18T01:10:19;29.33;;;16.00;;
20495;SDS011;10406;54.132;17.968;2022-08-18T01:15:42;29.17;;;15.60;;
20495;SDS011;10406;54.132;17.968;2022-08-18T01:21:04;27.13;;;14.93;;
20495;SDS011;10406;54.132;17.968;2022-08-18T01:26:53;27.90;;;15.37;;
20495;SDS011;10406;54.132;17.968;2022-08-18T01:32:15;33.20;;;18.70;;
20495;SDS011;10406;54.132;17.968;2022-08-18T01:37:38;31.73;;;16.53;;
20495;SDS011;10406;54.132;17.968;2022-08-18T01:43:02;27.50;;;16.40;;
20495;SDS011;10406;54.132;17.968;2022-08-18T01:48:23;30.57;;;16.20;;
20495;SDS011;10406;54.132;17.968;2022-08-18T01:53:44;30.87;;;16.27;;
20495;SDS011;10406;54.132;17.968;2022-08-18T01:59:08;33.83;;;15.13;;
20495;SDS011;10406;54.132;17.968;2022-08-18T02:04:32;27.43;;;15.23;;
20495;SDS011;10406;54.132;17.968;2022-08-18T02:09:54;30.50;;;15.93;;
20495;SDS011;10406;54.132;17.968;2022-08-18T02:15:17;34.00;;;17.93;;
20495;SDS011;10406;54.132;17.968;2022-08-18T02:20:38;33.40;;;18.33;;
20495;SDS011;10406;54.132;17.968;2022-08-18T02:26:02;29.80;;;15.68;;
20495;SDS011;10406;54.132;17.968;2022-08-18T02:31:26;29.53;;;14.83;;
20495;SDS011;10406;54.132;17.968;2022-08-18T02:36:47;27.87;;;15.73;;
20495;SDS011;10406;54.132;17.968;2022-08-18T02:42:09;27.40;;;15.17;;
20495;SDS011;10406;54.132;17.968;2022-08-18T02:47:34;26.83;;;16.03;;
20495;SDS011;10406;54.132;17.968;2022-08-18T02:52:55;29.97;;;15.43;;
20495;SDS011;10406;54.132;17.968;2022-08-18T02:58:16;29.93;;;17.37;;
20495;SDS011;10406;54.132;17.968;2022-08-18T03:03:39;29.00;;;16.00;;
20495;SDS011;10406;54.132;17.968;2022-08-18T03:09:01;26.63;;;15.13;;
20495;SDS011;10406;54.132;17.968;2022-08-18T03:14:22;37.00;;;21.47;;
20495;SDS011;10406;54.132;17.968;2022-08-18T03:19:46;39.92;;;21.05;;
20495;SDS011;10406;54.132;17.968;2022-08-18T03:25:07;34.97;;;20.60;;
20495;SDS011;10406;54.132;17.968;2022-08-18T03:30:29;35.47;;;21.73;;
20495;SDS011;10406;54.132;17.968;2022-08-18T03:35:51;36.67;;;21.33;;
20495;SDS011;10406;54.132;17.968;2022-08-18T03:41:13;35.77;;;21.60;;
20495;SDS011;10406;54.132;17.968;2022-08-18T03:46:36;33.37;;;19.97;;
20495;SDS011;10406;54.132;17.968;2022-08-18T03:52:00;37.07;;;20.23;;
20495;SDS011;10406;54.132;17.968;2022-08-18T03:57:23;33.03;;;19.03;;
20495;SDS011;10406;54.132;17.968;2022-08-18T04:02:45;37.57;;;18.97;;
20495;SDS011;10406;54.132;17.968;2022-08-18T04:08:08;31.67;;;17.00;;
20495;SDS011;10406;54.132;17.968;2022-08-18T04:13:29;28.33;;;16.20;;
20495;SDS011;10406;54.132;17.968;2022-08-18T04:18:53;32.10;;;16.50;;
20495;SDS011;10406;54.132;17.968;2022-08-18T04:24:19;28.45;;;16.13;;
20495;SDS011;10406;54.132;17.968;2022-08-18T04:29:40;26.58;;;16.23;;
20495;SDS011;10406;54.132;17.968;2022-08-18T04:35:02;33.53;;;19.15;;
20495;SDS011;10406;54.132;17.968;2022-08-18T04:40:25;32.28;;;18.45;;
20495;SDS011;10406;54.132;17.968;2022-08-18T04:45:48;32.40;;;19.23;;
20495;SDS011;10406;54.132;17.968;2022-08-18T04:51:13;34.83;;;19.67;;
20495;SDS011;10406;54.132;17.968;2022-08-18T04:56:38;35.25;;;19.20;;
20495;SDS011;10406;54.132;17.968;2022-08-18T05:01:59;32.70;;;19.88;;
20495;SDS011;10406;54.132;17.968;2022-08-18T05:07:23;37.47;;;20.27;;
20495;SDS011;10406;54.132;17.968;2022-08-18T05:12:47;34.63;;;19.23;;
20495;SDS011;10406;54.132;17.968;2022-08-18T10:01:44;23.85;;;9.82;;
20495;SDS011;10406;54.132;17.968;2022-08-18T10:07:19;23.15;;;10.20;;
20495;SDS011;10406;54.132;17.968;2022-08-18T10:18:38;18.95;;;10.07;;
20495;SDS011;10406;54.132;17.968;2022-08-18T10:24:14;23.98;;;10.23;;
20495;SDS011;10406;54.132;17.968;2022-08-18T10:29:45;25.42;;;10.65;;
20495;SDS011;10406;54.132;17.968;2022-08-18T10:41:18;18.17;;;9.68;;
20495;SDS011;10406;54.132;17.968;2022-08-18T10:46:43;19.92;;;9.65;;
20495;SDS011;10406;54.132;17.968;2022-08-18T10:52:13;20.23;;;9.38;;
20495;SDS011;10406;54.132;17.968;2022-08-18T10:58:00;18.27;;;9.60;;
20495;SDS011;10406;54.132;17.968;2022-08-18T11:03:37;28.20;;;9.32;;
20495;SDS011;10406;54.132;17.968;2022-08-18T12:03:52;12.57;;;7.38;;
20495;SDS011;10406;54.132;17.968;2022-08-18T12:09:14;15.55;;;6.95;;
20495;SDS011;10406;54.132;17.968;2022-08-18T12:14:49;15.07;;;7.93;;
20495;SDS011;10406;54.132;17.968;2022-08-18T12:20:16;25.30;;;9.10;;
20495;SDS011;10406;54.132;17.968;2022-08-18T12:25:37;21.17;;;7.72;;
20495;SDS011;10406;54.132;17.968;2022-08-18T12:30:59;13.90;;;7.32;;
20495;SDS011;10406;54.132;17.968;2022-08-18T12:36:22;19.30;;;6.93;;
20495;SDS011;10406;54.132;17.968;2022-08-18T12:41:43;20.30;;;8.23;;
20495;SDS011;10406;54.132;17.968;2022-08-18T12:47:09;14.85;;;7.13;;
20495;SDS011;10406;54.132;17.968;2022-08-18T12:52:33;12.68;;;6.13;;
20495;SDS011;10406;54.132;17.968;2022-08-18T12:57:54;20.30;;;6.93;;
20495;SDS011;10406;54.132;17.968;2022-08-18T13:03:15;12.60;;;6.35;;
20495;SDS011;10406;54.132;17.968;2022-08-18T13:08:38;15.73;;;7.40;;
20495;SDS011;10406;54.132;17.968;2022-08-18T13:13:59;15.70;;;7.82;;
20495;SDS011;10406;54.132;17.968;2022-08-18T13:19:22;15.10;;;7.40;;
20495;SDS011;10406;54.132;17.968;2022-08-18T13:24:45;14.80;;;7.53;;
20495;SDS011;10406;54.132;17.968;2022-08-18T13:30:07;16.25;;;7.53;;
20495;SDS011;10406;54.132;17.968;2022-08-18T13:35:31;20.80;;;8.45;;
20495;SDS011;10406;54.132;17.968;2022-08-18T13:46:32;16.48;;;7.85;;
20495;SDS011;10406;54.132;17.968;2022-08-18T13:51:53;15.30;;;8.73;;
20495;SDS011;10406;54.132;17.968;2022-08-18T13:57:18;22.02;;;7.63;;
20495;SDS011;10406;54.132;17.968;2022-08-18T14:09:51;14.98;;;7.18;;
20495;SDS011;10406;54.132;17.968;2022-08-18T14:15:14;12.30;;;6.82;;
20495;SDS011;10406;54.132;17.968;2022-08-18T14:21:52;13.73;;;6.90;;
20495;SDS011;10406;54.132;17.968;2022-08-18T14:27:49;11.15;;;6.95;;
20495;SDS011;10406;54.132;17.968;2022-08-18T14:33:12;15.80;;;7.28;;
20495;SDS011;10406;54.132;17.968;2022-08-18T14:38:38;18.85;;;8.48;;
20495;SDS011;10406;54.132;17.968;2022-08-18T14:44:00;15.20;;;7.78;;
20495;SDS011;10406;54.132;17.968;2022-08-18T14:49:23;14.23;;;7.50;;
20495;SDS011;10406;54.132;17.968;2022-08-18T14:54:44;18.92;;;7.25;;
20495;SDS011;10406;54.132;17.968;2022-08-18T15:00:07;17.85;;;7.70;;
20495;SDS011;10406;54.132;17.968;2022-08-18T15:05:33;14.90;;;7.60;;
20495;SDS011;10406;54.132;17.968;2022-08-18T15:10:59;19.52;;;7.18;;
20495;SDS011;10406;54.132;17.968;2022-08-18T15:16:37;17.50;;;8.13;;
20495;SDS011;10406;54.132;17.968;2022-08-18T15:22:04;18.50;;;8.32;;
20495;SDS011;10406;54.132;17.968;2022-08-18T15:27:48;16.23;;;7.82;;
20495;SDS011;10406;54.132;17.968;2022-08-18T15:33:09;14.50;;;8.15;;
20495;SDS011;10406;54.132;17.968;2022-08-18T15:38:35;22.90;;;8.80;;
20495;SDS011;10406;54.132;17.968;2022-08-18T15:43:58;17.02;;;8.35;;
20495;SDS011;10406;54.132;17.968;2022-08-18T15:49:29;20.67;;;8.30;;
20495;SDS011;10406;54.132;17.968;2022-08-18T15:54:52;21.88;;;8.98;;
20495;SDS011;10406;54.132;17.968;2022-08-18T16:00:14;18.65;;;9.05;;
20495;SDS011;10406;54.132;17.968;2022-08-18T16:05:38;20.55;;;9.27;;
20495;SDS011;10406;54.132;17.968;2022-08-18T16:11:06;18.48;;;9.55;;
20495;SDS011;10406;54.132;17.968;2022-08-18T16:16:28;30.77;;;11.80;;
20495;SDS011;10406;54.132;17.968;2022-08-18T16:21:49;29.48;;;11.30;;
20495;SDS011;10406;54.132;17.968;2022-08-18T16:27:12;23.88;;;9.15;;
20495;SDS011;10406;54.132;17.968;2022-08-18T16:32:40;32.45;;;9.55;;
20495;SDS011;10406;54.132;17.968;2022-08-18T16:38:04;20.83;;;9.27;;
20495;SDS011;10406;54.132;17.968;2022-08-18T16:48:49;19.48;;;9.57;;
20495;SDS011;10406;54.132;17.968;2022-08-18T16:54:11;25.98;;;12.05;;
20495;SDS011;10406;54.132;17.968;2022-08-18T16:59:34;29.00;;;10.45;;
20495;SDS011;10406;54.132;17.968;2022-08-18T17:05:15;20.88;;;10.63;;
20495;SDS011;10406;54.132;17.968;2022-08-18T17:10:36;44.33;;;20.48;;
20495;SDS011;10406;54.132;17.968;2022-08-18T17:16:01;42.17;;;14.13;;
20495;SDS011;10406;54.132;17.968;2022-08-18T17:21:29;31.67;;;16.85;;
20495;SDS011;10406;54.132;17.968;2022-08-18T17:26:52;30.17;;;12.45;;
20495;SDS011;10406;54.132;17.968;2022-08-18T17:32:24;27.50;;;10.50;;
20495;SDS011;10406;54.132;17.968;2022-08-18T17:37:52;22.48;;;10.02;;
20495;SDS011;10406;54.132;17.968;2022-08-18T17:43:21;23.15;;;11.30;;
20495;SDS011;10406;54.132;17.968;2022-08-18T17:48:47;23.90;;;11.50;;
20495;SDS011;10406;54.132;17.968;2022-08-18T17:54:19;28.77;;;10.95;;
20495;SDS011;10406;54.132;17.968;2022-08-18T18:00:05;25.45;;;11.27;;
20495;SDS011;10406;54.132;17.968;2022-08-18T18:05:31;20.58;;;10.65;;
20495;SDS011;10406;54.132;17.968;2022-08-18T18:11:01;25.40;;;11.15;;
20495;SDS011;10406;54.132;17.968;2022-08-18T18:16:32;27.00;;;11.40;;
20495;SDS011;10406;54.132;17.968;2022-08-18T18:22:00;25.35;;;12.15;;
20495;SDS011;10406;54.132;17.968;2022-08-18T18:27:28;33.40;;;14.70;;
20495;SDS011;10406;54.132;17.968;2022-08-18T18:32:54;32.35;;;13.07;;
20495;SDS011;10406;54.132;17.968;2022-08-18T18:38:22;24.48;;;10.85;;
20495;SDS011;10406;54.132;17.968;2022-08-18T18:43:47;27.55;;;12.70;;
20495;SDS011;10406;54.132;17.968;2022-08-18T18:49:14;22.73;;;11.82;;
20495;SDS011;10406;54.132;17.968;2022-08-18T18:54:49;28.42;;;11.88;;
20495;SDS011;10406;54.132;17.968;2022-08-18T19:00:22;29.13;;;11.38;;
20495;SDS011;10406;54.132;17.968;2022-08-18T19:05:52;57.10;;;33.85;;
20495;SDS011;10406;54.132;17.968;2022-08-18T19:11:23;60.28;;;27.75;;
20495;SDS011;10406;54.132;17.968;2022-08-18T19:16:53;151.05;;;50.45;;
20495;SDS011;10406;54.132;17.968;2022-08-18T19:22:23;71.82;;;29.45;;
20495;SDS011;10406;54.132;17.968;2022-08-18T19:27:48;41.15;;;18.02;;
20495;SDS011;10406;54.132;17.968;2022-08-18T19:33:13;20.15;;;11.13;;
20495;SDS011;10406;54.132;17.968;2022-08-18T19:38:42;31.73;;;11.57;;
20495;SDS011;10406;54.132;17.968;2022-08-18T19:44:13;28.08;;;12.57;;
20495;SDS011;10406;54.132;17.968;2022-08-18T19:49:50;22.65;;;12.18;;
20495;SDS011;10406;54.132;17.968;2022-08-18T19:55:37;22.33;;;11.30;;
20495;SDS011;10406;54.132;17.968;2022-08-18T20:01:17;23.45;;;11.00;;
20495;SDS011;10406;54.132;17.968;2022-08-18T20:07:07;22.05;;;10.30;;
20495;SDS011;10406;54.132;17.968;2022-08-18T20:12:54;18.67;;;8.52;;
20495;SDS011;10406;54.132;17.968;2022-08-18T20:18:30;16.10;;;8.48;;
20495;SDS011;10406;54.132;17.968;2022-08-18T20:23:58;16.50;;;8.60;;
20495;SDS011;10406;54.132;17.968;2022-08-18T20:29:38;35.08;;;9.23;;
20495;SDS011;10406;54.132;17.968;2022-08-18T20:35:12;14.57;;;8.23;;
20495;SDS011;10406;54.132;17.968;2022-08-18T20:40:40;17.55;;;8.98;;
20495;SDS011;10406;54.132;17.968;2022-08-18T20:46:12;14.90;;;8.15;;
20495;SDS011;10406;54.132;17.968;2022-08-18T20:51:53;18.52;;;9.07;;
20495;SDS011;10406;54.132;17.968;2022-08-18T20:57:20;24.77;;;10.13;;
20495;SDS011;10406;54.132;17.968;2022-08-18T21:02:45;20.73;;;9.30;;
20495;SDS011;10406;54.132;17.968;2022-08-18T21:08:09;24.83;;;10.90;;
20495;SDS011;10406;54.132;17.968;2022-08-18T21:13:47;18.95;;;9.60;;
20495;SDS011;10406;54.132;17.968;2022-08-18T21:19:16;18.10;;;9.27;;
20495;SDS011;10406;54.132;17.968;2022-08-18T21:24:44;17.70;;;8.60;;
20495;SDS011;10406;54.132;17.968;2022-08-18T21:30:14;15.68;;;8.13;;
20495;SDS011;10406;54.132;17.968;2022-08-18T21:35:37;17.33;;;8.02;;
20495;SDS011;10406;54.132;17.968;2022-08-18T21:41:01;16.90;;;8.85;;
20495;SDS011;10406;54.132;17.968;2022-08-18T21:46:24;17.27;;;9.02;;
20495;SDS011;10406;54.132;17.968;2022-08-18T21:51:48;16.15;;;8.48;;
20495;SDS011;10406;54.132;17.968;2022-08-18T21:57:22;20.67;;;9.25;;
20495;SDS011;10406;54.132;17.968;2022-08-18T22:08:24;17.17;;;8.02;;
20495;SDS011;10406;54.132;17.968;2022-08-18T22:13:50;19.08;;;9.40;;
20495;SDS011;10406;54.132;17.968;2022-08-18T22:19:22;18.83;;;9.35;;
20495;SDS011;10406;54.132;17.968;2022-08-18T22:24:48;17.83;;;9.07;;
20495;SDS011;10406;54.132;17.968;2022-08-18T22:30:13;18.05;;;8.68;;
20495;SDS011;10406;54.132;17.968;2022-08-18T22:35:34;20.90;;;9.43;;
20495;SDS011;10406;54.132;17.968;2022-08-18T22:40:57;22.20;;;9.38;;
20495;SDS011;10406;54.132;17.968;2022-08-18T22:46:19;14.15;;;7.88;;
20495;SDS011;10406;54.132;17.968;2022-08-18T22:51:41;21.35;;;8.98;;
20495;SDS011;10406;54.132;17.968;2022-08-18T22:57:05;17.02;;;9.10;;
20495;SDS011;10406;54.132;17.968;2022-08-18T23:02:25;20.42;;;8.75;;
20495;SDS011;10406;54.132;17.968;2022-08-18T23:07:47;15.55;;;9.02;;
20495;SDS011;10406;54.132;17.968;2022-08-18T23:13:09;16.13;;;8.75;;
20495;SDS011;10406;54.132;17.968;2022-08-18T23:18:30;19.42;;;9.13;;
20495;SDS011;10406;54.132;17.968;2022-08-18T23:23:51;19.30;;;9.90;;
20495;SDS011;10406;54.132;17.968;2022-08-18T23:29:16;22.92;;;10.23;;
20495;SDS011;10406;54.132;17.968;2022-08-18T23:34:38;21.48;;;9.85;;
20495;SDS011;10406;54.132;17.968;2022-08-18T23:39:59;22.83;;;9.10;;
20495;SDS011;10406;54.132;17.968;2022-08-18T23:45:21;21.58;;;9.25;;
20495;SDS011;10406;54.132;17.968;2022-08-18T23:50:43;19.90;;;9.82;;
20495;SDS011;10406;54.132;17.968;2022-08-18T23:56:05;20.52;;;9.88;;
